createdAt,value
2022-09-20T00:02:18.997Z,13.60
2022-09-20T00:04:52.347Z,13.60
2022-09-20T00:07:20.141Z,13.50
2022-09-20T00:09:47.307Z,13.60
2022-09-20T00:12:15.194Z,13.60
2022-09-20T00:14:44.004Z,13.50
2022-09-20T00:17:14.500Z,13.50
2022-09-20T00:19:58.596Z,13.40
2022-09-20T00:22:27.837Z,13.40
2022-09-20T00:25:01.187Z,13.50
2022-09-20T00:27:31.520Z,13.40
2022-09-20T00:30:01.630Z,13.40
2022-09-20T00:32:36.378Z,13.30
2022-09-20T00:35:11.298Z,13.20
2022-09-20T00:37:41.763Z,13.20
2022-09-20T00:40:16.364Z,13.10
2022-09-20T00:42:54.870Z,12.90
2022-09-20T00:45:29.334Z,12.80
2022-09-20T00:48:10.552Z,12.70
2022-09-20T00:50:49.732Z,12.60
2022-09-20T00:53:34.180Z,12.60
2022-09-20T00:56:10.243Z,12.40
2022-09-20T00:58:51.894Z,12.30
2022-09-20T01:01:29.895Z,12.20
2022-09-20T01:04:00.115Z,12.10
2022-09-20T01:06:28.750Z,12.10
2022-09-20T01:09:03.001Z,12.10
2022-09-20T01:11:32.345Z,12.10
2022-09-20T01:14:03.858Z,12.10
2022-09-20T01:16:33.952Z,12.10
2022-09-20T01:19:07.162Z,12.00
2022-09-20T01:21:35.249Z,12.00
2022-09-20T01:24:19.973Z,11.90
2022-09-20T01:29:53.275Z,11.70
2022-09-20T01:32:28.305Z,11.60
2022-09-20T01:35:08.395Z,11.50
2022-09-20T01:37:59.533Z,11.60
2022-09-20T01:40:42.793Z,11.60
2022-09-20T01:43:49.764Z,11.60
2022-09-20T01:46:32.614Z,11.80
2022-09-20T01:49:50.830Z,11.90
2022-09-20T01:52:46.580Z,11.90
2022-09-20T01:55:45.649Z,11.90
2022-09-20T01:58:43.024Z,11.70
2022-09-20T02:01:41.673Z,11.70
2022-09-20T02:04:23.816Z,11.70
2022-09-20T02:06:51.012Z,11.60
2022-09-20T02:09:37.120Z,11.50
2022-09-20T02:12:33.976Z,11.30
2022-09-20T02:15:01.636Z,11.20
2022-09-20T02:17:58.259Z,11.10
2022-09-20T02:20:34.091Z,11.00
2022-09-20T02:23:39.155Z,11.00
2022-09-20T02:26:39.235Z,10.90
2022-09-20T02:29:18.909Z,10.90
2022-09-20T02:32:27.906Z,10.80
2022-09-20T02:35:24.082Z,10.80
2022-09-20T02:38:12.080Z,10.80
2022-09-20T02:41:19.199Z,10.80
2022-09-20T02:44:15.501Z,10.90
2022-09-20T02:47:15.349Z,11.00
2022-09-20T02:50:04.559Z,11.00
2022-09-20T02:52:56.933Z,11.20
2022-09-20T02:55:39.243Z,11.40
2022-09-20T02:58:23.436Z,11.50
2022-09-20T03:00:56.135Z,11.50
2022-09-20T03:03:52.507Z,11.60
2022-09-20T03:07:04.167Z,11.80
2022-09-20T03:10:15.460Z,11.90
2022-09-20T03:13:08.283Z,12.00
2022-09-20T03:15:47.853Z,12.00
2022-09-20T03:18:32.449Z,12.10
2022-09-20T03:21:21.510Z,11.90
2022-09-20T03:24:36.454Z,11.90
2022-09-20T03:27:43.628Z,11.90
2022-09-20T03:30:56.068Z,11.70
2022-09-20T03:33:42.062Z,11.70
2022-09-20T03:36:45.860Z,11.80
2022-09-20T03:39:53.911Z,11.70
2022-09-20T03:42:29.813Z,11.80
2022-09-20T03:45:04.248Z,11.60
2022-09-20T03:47:57.854Z,11.60
2022-09-20T03:51:07.278Z,11.50
2022-09-20T03:54:28.865Z,11.40
2022-09-20T03:57:12.736Z,11.50
2022-09-20T04:00:08.117Z,11.60
2022-09-20T04:03:27.087Z,11.80
2022-09-20T04:06:12.402Z,11.80
2022-09-20T04:09:08.173Z,11.80
2022-09-20T04:11:59.861Z,11.80
2022-09-20T04:14:53.698Z,12.00
2022-09-20T04:17:47.756Z,11.90
2022-09-20T04:20:31.676Z,12.00
2022-09-20T04:23:17.448Z,11.90
2022-09-20T04:25:50.831Z,11.90
2022-09-20T04:28:34.415Z,12.00
2022-09-20T04:31:20.713Z,12.20
2022-09-20T04:33:53.895Z,12.20
2022-09-20T04:37:00.587Z,12.20
2022-09-20T04:39:54.217Z,12.30
2022-09-20T04:42:50.132Z,12.40
2022-09-20T04:45:54.168Z,12.50
2022-09-20T04:48:44.967Z,12.50
2022-09-20T04:51:55.468Z,12.60
2022-09-20T04:54:28.203Z,12.70
2022-09-20T04:57:23.246Z,12.80
2022-09-20T05:00:13.479Z,12.90
2022-09-20T05:03:05.211Z,12.90
2022-09-20T05:05:38.837Z,13.00
2022-09-20T05:08:58.798Z,13.10
2022-09-20T05:11:39.289Z,13.30
2022-09-20T05:14:36.290Z,13.60
2022-09-20T05:17:16.580Z,13.90
2022-09-20T05:20:15.519Z,14.10
2022-09-20T05:22:57.234Z,14.50
2022-09-20T05:26:23.705Z,14.60
2022-09-20T05:29:05.226Z,14.80
2022-09-20T05:31:43.803Z,14.80
2022-09-20T05:35:04.661Z,14.80
2022-09-20T05:38:02.170Z,14.70
2022-09-20T05:41:00.044Z,14.80
2022-09-20T05:44:01.415Z,14.70
2022-09-20T05:46:58.789Z,14.60
2022-09-20T05:49:54.915Z,14.50
2022-09-20T05:52:52.510Z,14.70
2022-09-20T05:55:56.065Z,14.60
2022-09-20T05:58:52.712Z,14.70
2022-09-20T06:04:26.970Z,15.00
2022-09-20T06:07:12.857Z,15.10
2022-09-20T06:10:28.259Z,15.20
2022-09-20T06:13:18.422Z,15.30
2022-09-20T06:16:04.855Z,15.10
2022-09-20T06:18:52.141Z,15.00
2022-09-20T06:21:47.675Z,14.80
2022-09-20T06:24:54.348Z,14.70
2022-09-20T06:27:44.392Z,14.60
2022-09-20T06:30:36.821Z,14.50
2022-09-20T06:33:13.767Z,14.50
2022-09-20T06:35:59.155Z,14.40
2022-09-20T06:39:07.385Z,14.30
2022-09-20T06:42:03.751Z,14.20
2022-09-20T06:44:51.654Z,14.10
2022-09-20T06:47:24.445Z,14.10
2022-09-20T06:50:07.961Z,14.00
2022-09-20T06:53:02.895Z,14.10
2022-09-20T06:55:49.383Z,14.00
2022-09-20T06:58:35.675Z,14.10
2022-09-20T07:01:08.408Z,14.10
2022-09-20T07:03:46.080Z,14.00
2022-09-20T07:06:39.835Z,14.10
2022-09-20T07:09:26.733Z,14.10
2022-09-20T07:12:09.847Z,14.30
2022-09-20T07:14:46.129Z,14.30
2022-09-20T07:17:19.153Z,14.50
2022-09-20T07:19:46.807Z,14.50
2022-09-20T07:22:21.597Z,14.80
2022-09-20T07:24:57.337Z,14.90
2022-09-20T07:27:34.285Z,15.20
2022-09-20T07:30:10.188Z,15.30
2022-09-20T07:32:48.221Z,15.50
2022-09-20T07:35:32.482Z,15.60
2022-09-20T07:38:06.762Z,15.80
2022-09-20T07:43:37.702Z,16.60
2022-09-20T07:46:22.840Z,17.50
2022-09-20T07:49:51.982Z,18.80
2022-09-20T07:52:12.739Z,20.30
2022-09-20T07:54:57.853Z,21.80
2022-09-20T08:00:32.643Z,22.80
2022-09-20T08:03:10.132Z,23.00
2022-09-20T08:05:45.138Z,23.70
2022-09-20T08:08:23.302Z,24.30
2022-09-20T08:11:16.490Z,25.10
2022-09-20T08:16:42.605Z,27.00
2022-09-20T08:19:21.459Z,28.60
2022-09-20T08:21:58.941Z,30.00
2022-09-20T08:24:32.203Z,31.30
2022-09-20T08:27:06.768Z,32.40
2022-09-20T08:29:43.828Z,33.50
2022-09-20T08:32:14.657Z,34.20
2022-09-20T08:34:49.346Z,34.90
2022-09-20T08:37:24.422Z,35.60
2022-09-20T08:46:56.837Z,37.90
2022-09-20T08:49:46.207Z,38.30
2022-09-20T08:52:37.644Z,38.00
2022-09-20T08:55:40.759Z,37.00
2022-09-20T08:58:23.846Z,35.70
2022-09-20T09:01:04.683Z,33.80
2022-09-20T09:08:11.788Z,31.50
2022-09-20T09:11:19.916Z,30.30
2022-09-20T09:14:01.950Z,28.50
2022-09-20T09:16:38.265Z,27.20
2022-09-20T09:23:17.247Z,27.20
2022-09-20T09:25:53.247Z,26.70
2022-09-20T09:28:32.179Z,26.00
2022-09-20T09:31:27.121Z,25.20
2022-09-20T09:34:03.653Z,24.10
2022-09-20T09:37:09.473Z,23.30
2022-09-20T09:40:23.411Z,22.60
2022-09-20T09:43:20.584Z,21.80
2022-09-20T09:45:50.641Z,21.30
2022-09-20T09:49:45.771Z,20.70
2022-09-20T09:52:17.018Z,20.20
2022-09-20T09:54:55.614Z,19.80
2022-09-20T09:57:58.278Z,19.70
2022-09-20T10:01:34.589Z,19.40
2022-09-20T10:03:55.554Z,19.40
2022-09-20T10:07:06.549Z,19.50
2022-09-20T10:10:24.894Z,19.50
2022-09-20T10:13:06.623Z,19.40
2022-09-20T10:15:58.030Z,19.00
2022-09-20T10:18:58.739Z,18.60
2022-09-20T10:21:49.049Z,18.30
2022-09-20T10:24:48.626Z,18.20
2022-09-20T10:27:56.005Z,18.00
2022-09-20T10:31:00.554Z,18.10
2022-09-20T10:34:07.873Z,18.40
2022-09-20T10:36:46.040Z,18.50
2022-09-20T10:39:50.553Z,18.70
2022-09-20T10:42:58.835Z,18.80
2022-09-20T10:46:32.958Z,18.80
2022-09-20T10:52:57.923Z,18.80
2022-09-20T10:55:48.005Z,19.00
2022-09-20T10:58:34.290Z,19.10
2022-09-20T11:01:34.993Z,19.30
2022-09-20T11:04:17.563Z,19.30
2022-09-20T11:07:19.584Z,19.50
2022-09-20T11:09:52.652Z,19.60
2022-09-20T11:12:56.213Z,19.60
2022-09-20T11:19:07.527Z,19.50
2022-09-20T11:22:25.756Z,19.50
2022-09-20T11:25:33.535Z,19.30
2022-09-20T11:31:26.233Z,18.90
2022-09-20T11:34:17.202Z,18.80
2022-09-20T11:37:03.962Z,18.90
2022-09-20T11:39:55.080Z,18.80
2022-09-20T11:42:56.841Z,18.60
2022-09-20T11:49:05.713Z,18.70
2022-09-20T11:52:06.129Z,18.60
2022-09-20T11:55:03.961Z,18.60
2022-09-20T11:57:38.322Z,18.60
2022-09-20T12:00:13.748Z,18.50
2022-09-20T12:02:52.063Z,18.50
2022-09-20T12:05:49.389Z,18.50
2022-09-20T12:08:52.630Z,18.50
2022-09-20T12:11:34.185Z,18.60
2022-09-20T12:14:18.652Z,18.70
2022-09-20T12:16:54.271Z,19.10
2022-09-20T12:19:48.642Z,19.20
2022-09-20T12:22:54.457Z,19.30
2022-09-20T12:26:11.642Z,19.50
2022-09-20T12:29:04.663Z,19.70
2022-09-20T12:31:41.625Z,20.00
2022-09-20T12:34:18.678Z,20.20
2022-09-20T12:37:08.136Z,20.20
2022-09-20T12:39:42.101Z,20.00
2022-09-20T12:42:13.266Z,19.70
2022-09-20T12:45:24.068Z,19.50
2022-09-20T12:48:04.218Z,19.30
2022-09-20T12:51:48.990Z,19.20
2022-09-20T12:54:26.492Z,19.20
2022-09-20T12:57:20.448Z,19.40
2022-09-20T12:59:57.731Z,19.40
2022-09-20T13:03:20.369Z,19.30
2022-09-20T13:06:24.912Z,19.40
2022-09-20T13:09:10.313Z,19.50
2022-09-20T13:11:53.091Z,19.30
2022-09-20T13:14:32.707Z,19.40
2022-09-20T13:17:21.962Z,19.30
2022-09-20T13:20:03.850Z,19.40
2022-09-20T13:22:47.029Z,19.40
2022-09-20T13:25:21.219Z,19.30
2022-09-20T13:27:58.260Z,19.30
2022-09-20T13:30:35.208Z,19.10
2022-09-20T13:33:29.370Z,19.00
2022-09-20T13:36:10.891Z,18.90
2022-09-20T13:41:30.746Z,18.80
2022-09-20T13:44:17.430Z,18.70
2022-09-20T13:46:54.754Z,18.60
2022-09-20T13:49:31.449Z,18.60
2022-09-20T13:52:10.600Z,18.50
2022-09-20T13:58:10.321Z,18.40
2022-09-20T14:01:04.887Z,18.20
2022-09-20T14:03:41.392Z,18.10
2022-09-20T14:06:31.342Z,18.10
2022-09-20T14:09:10.788Z,18.10
2022-09-20T14:11:45.530Z,18.10
2022-09-20T14:14:19.894Z,17.90
2022-09-20T14:17:16.915Z,17.70
2022-09-20T14:19:49.849Z,17.40
2022-09-20T14:22:39.781Z,17.30
2022-09-20T14:25:34.487Z,17.10
2022-09-20T14:28:30.093Z,17.00
2022-09-20T14:31:59.334Z,16.90
2022-09-20T14:34:36.650Z,16.70
2022-09-20T14:37:33.135Z,16.70
2022-09-20T14:40:19.446Z,16.70
2022-09-20T14:43:07.435Z,16.80
2022-09-20T14:49:00.708Z,16.80
2022-09-20T14:52:25.000Z,16.80
2022-09-20T14:55:16.983Z,16.70
2022-09-20T14:57:56.785Z,16.80
2022-09-20T15:00:34.273Z,16.80
2022-09-20T15:03:14.326Z,16.60
2022-09-20T15:05:54.032Z,16.60
2022-09-20T15:08:28.947Z,16.50
2022-09-20T15:10:56.578Z,16.60
2022-09-20T15:13:29.740Z,16.60
2022-09-20T15:16:00.226Z,16.70
2022-09-20T15:21:34.230Z,16.80
2022-09-20T15:24:01.977Z,16.70
2022-09-20T15:26:35.483Z,16.50
2022-09-20T15:29:06.207Z,16.40
2022-09-20T15:31:41.607Z,16.30
2022-09-20T15:34:22.881Z,16.20
2022-09-20T15:36:53.468Z,16.10
2022-09-20T15:39:22.586Z,16.00
2022-09-20T15:41:56.349Z,16.00
2022-09-20T15:44:26.795Z,15.90
2022-09-20T15:47:05.924Z,15.70
2022-09-20T15:49:33.854Z,15.60
2022-09-20T15:52:02.672Z,15.40
2022-09-20T15:54:36.081Z,15.30
2022-09-20T15:57:09.644Z,15.20
2022-09-20T15:59:40.771Z,15.20
2022-09-20T16:02:12.454Z,15.10
2022-09-20T16:04:41.964Z,15.10
2022-09-20T16:07:18.658Z,15.00
2022-09-20T16:09:46.582Z,14.80
2022-09-20T16:12:18.470Z,14.80
2022-09-20T16:17:58.926Z,14.70
2022-09-20T16:20:29.753Z,14.70
2022-09-20T16:23:04.386Z,14.60
2022-09-20T16:25:37.516Z,14.50
2022-09-20T16:28:08.329Z,14.50
2022-09-20T16:30:40.761Z,14.40
2022-09-20T16:33:24.349Z,14.40
2022-09-20T16:35:55.297Z,14.40
2022-09-20T16:38:29.934Z,14.30
2022-09-20T16:41:01.954Z,14.20
2022-09-20T16:43:44.057Z,14.20
2022-09-20T16:46:31.827Z,14.10
2022-09-20T16:49:04.350Z,14.10
2022-09-20T16:51:42.093Z,14.00
2022-09-20T16:54:18.224Z,14.00
2022-09-20T16:56:52.234Z,14.00
2022-09-20T16:59:23.155Z,13.90
2022-09-20T17:01:58.240Z,13.90
2022-09-20T17:04:26.319Z,13.90
2022-09-20T17:06:57.610Z,13.70
2022-09-20T17:09:25.460Z,13.70
2022-09-20T17:11:52.753Z,13.70
2022-09-20T17:14:21.199Z,13.70
2022-09-20T17:16:52.989Z,13.60
2022-09-20T17:19:21.481Z,13.60
2022-09-20T17:21:53.413Z,13.60
2022-09-20T17:24:23.110Z,13.60
2022-09-20T17:26:52.228Z,13.50
2022-09-20T17:29:21.021Z,13.50
2022-09-20T17:31:56.258Z,13.50
2022-09-20T17:34:27.189Z,13.40
2022-09-20T17:37:03.582Z,13.50
2022-09-20T17:39:30.996Z,13.40
2022-09-20T17:42:01.734Z,13.40
2022-09-20T17:44:35.259Z,13.40
2022-09-20T17:47:09.445Z,13.30
2022-09-20T17:49:40.982Z,13.30
2022-09-20T17:52:13.909Z,13.20
2022-09-20T17:54:45.253Z,13.30
2022-09-20T17:57:14.107Z,13.20
2022-09-20T17:59:44.232Z,13.20
2022-09-20T18:02:15.144Z,13.20
2022-09-20T18:04:42.823Z,13.10
2022-09-20T18:07:13.247Z,13.10
2022-09-20T18:09:41.927Z,13.10
2022-09-20T18:12:11.819Z,13.00
2022-09-20T18:14:42.812Z,13.00
2022-09-20T18:17:10.866Z,13.00
2022-09-20T18:19:43.767Z,13.00
2022-09-20T18:22:11.861Z,13.00
2022-09-20T18:24:51.739Z,13.00
2022-09-20T18:27:24.747Z,12.90
2022-09-20T18:29:56.517Z,12.90
2022-09-20T18:32:39.847Z,12.90
2022-09-20T18:35:07.214Z,12.90
2022-09-20T18:37:38.250Z,12.90
2022-09-20T18:40:09.982Z,12.90
2022-09-20T18:42:38.439Z,12.90
2022-09-20T18:45:06.490Z,13.00
2022-09-20T18:47:36.703Z,13.00
2022-09-20T18:50:19.448Z,13.00
2022-09-20T18:52:48.292Z,13.10
2022-09-20T18:55:16.336Z,13.20
2022-09-20T18:57:46.212Z,13.20
2022-09-20T19:00:24.018Z,13.20
2022-09-20T19:03:17.506Z,13.30
2022-09-20T19:05:52.524Z,13.30
2022-09-20T19:08:48.481Z,13.30
2022-09-20T19:11:33.926Z,13.30
2022-09-20T19:14:16.774Z,13.10
2022-09-20T19:16:52.200Z,13.10
2022-09-20T19:19:53.942Z,13.10
2022-09-20T19:22:52.043Z,12.90
2022-09-20T19:25:43.837Z,12.90
2022-09-20T19:28:12.802Z,12.90
2022-09-20T19:30:48.173Z,12.80
2022-09-20T19:33:19.049Z,12.70
2022-09-20T19:36:01.360Z,12.60
2022-09-20T19:39:04.605Z,12.60
2022-09-20T19:42:07.238Z,12.60
2022-09-20T19:45:13.149Z,12.50
2022-09-20T19:48:32.994Z,12.50
2022-09-20T19:51:15.495Z,12.50
2022-09-20T19:53:43.746Z,12.40
2022-09-20T19:56:25.284Z,12.40
2022-09-20T19:58:58.647Z,12.40
2022-09-20T20:01:30.372Z,12.40
2022-09-20T20:04:02.041Z,12.30
2022-09-20T20:06:55.370Z,12.20
2022-09-20T20:10:13.647Z,12.30
2022-09-20T20:13:25.782Z,12.10
2022-09-20T20:16:00.867Z,12.20
2022-09-20T20:18:55.079Z,12.10
2022-09-20T20:21:50.341Z,12.10
2022-09-20T20:24:34.834Z,12.10
2022-09-20T20:27:21.818Z,12.10
2022-09-20T20:29:50.934Z,12.20
2022-09-20T20:32:18.940Z,12.20
2022-09-20T20:34:47.108Z,12.20
2022-09-20T20:37:15.239Z,12.20
2022-09-20T20:39:43.319Z,12.40
2022-09-20T20:42:13.036Z,12.40
2022-09-20T20:44:41.163Z,12.50
2022-09-20T20:47:11.935Z,12.50
2022-09-20T20:49:41.560Z,12.50
2022-09-20T20:52:23.506Z,12.60
2022-09-20T20:55:00.575Z,12.60
2022-09-20T20:57:34.353Z,12.60
2022-09-20T21:00:02.525Z,12.70
2022-09-20T21:02:38.601Z,12.70
2022-09-20T21:05:07.558Z,12.80
2022-09-20T21:07:35.671Z,12.80
2022-09-20T21:10:09.745Z,12.80
2022-09-20T21:12:40.948Z,12.80
2022-09-20T21:15:26.018Z,12.90
2022-09-20T21:17:55.466Z,13.00
2022-09-20T21:20:23.761Z,12.90
2022-09-20T21:22:51.575Z,12.80
2022-09-20T21:25:18.861Z,12.80
2022-09-20T21:27:46.246Z,12.80
2022-09-20T21:30:17.336Z,13.00
2022-09-20T21:32:50.263Z,12.90
2022-09-20T21:35:21.212Z,13.00
2022-09-20T21:37:54.240Z,13.00
2022-09-20T21:40:24.255Z,12.90
2022-09-20T21:42:52.634Z,13.10
2022-09-20T21:45:28.422Z,13.00
2022-09-20T21:47:59.263Z,13.00
2022-09-20T21:50:26.656Z,13.00
2022-09-20T21:52:54.501Z,13.00
2022-09-20T21:55:21.799Z,13.00
2022-09-20T21:57:51.216Z,12.90
2022-09-20T22:00:25.471Z,12.90
2022-09-20T22:03:02.495Z,12.90
2022-09-20T22:05:30.072Z,12.80
2022-09-20T22:07:57.713Z,12.80
2022-09-20T22:10:26.814Z,12.90
2022-09-20T22:12:56.914Z,12.90
2022-09-20T22:15:24.609Z,12.90
2022-09-20T22:17:52.452Z,12.80
2022-09-20T22:20:19.723Z,12.90
2022-09-20T22:22:47.035Z,13.00
2022-09-20T22:25:15.057Z,12.90
2022-09-20T22:27:42.220Z,13.00
2022-09-20T22:30:10.594Z,12.90
2022-09-20T22:32:40.974Z,12.90
2022-09-20T22:35:12.868Z,13.00
2022-09-20T22:37:40.690Z,12.90
2022-09-20T22:40:10.451Z,13.00
2022-09-20T22:42:38.242Z,12.90
2022-09-20T22:45:06.308Z,13.00
2022-09-20T22:47:33.547Z,12.90
2022-09-20T22:50:01.365Z,12.80
2022-09-20T22:52:51.502Z,12.90
2022-09-20T22:55:18.880Z,12.90
2022-09-20T22:57:53.937Z,13.00
2022-09-20T23:00:21.767Z,12.80
2022-09-20T23:02:57.522Z,12.90
2022-09-20T23:05:26.426Z,12.90
2022-09-20T23:07:56.259Z,12.90
2022-09-20T23:10:28.730Z,12.90
2022-09-20T23:12:56.341Z,12.90
2022-09-20T23:15:30.170Z,12.90
2022-09-20T23:17:57.991Z,12.90
2022-09-20T23:20:27.855Z,12.90
2022-09-20T23:22:55.150Z,12.90
2022-09-20T23:25:32.152Z,13.00
2022-09-20T23:28:04.555Z,13.00
2022-09-20T23:30:35.313Z,12.90
2022-09-20T23:33:04.488Z,12.90
2022-09-20T23:35:45.043Z,12.90
2022-09-20T23:38:16.222Z,12.90
2022-09-20T23:40:51.332Z,12.90
2022-09-20T23:43:24.815Z,12.90
2022-09-20T23:45:54.372Z,12.90
2022-09-20T23:48:22.685Z,12.90
2022-09-20T23:50:52.904Z,12.90
2022-09-20T23:53:20.868Z,12.90
2022-09-20T23:55:48.706Z,12.90
2022-09-20T23:58:22.951Z,13.10
